createdAt,value
2019-05-29T00:01:21.266Z,98492.60
2019-05-29T00:03:48.858Z,98500.22
2019-05-29T00:06:19.076Z,98497.69
2019-05-29T00:08:49.392Z,98498.30
2019-05-29T00:11:19.614Z,98494.98
2019-05-29T00:13:51.573Z,98487.72
2019-05-29T00:16:21.813Z,98494.29
2019-05-29T00:18:52.100Z,98493.56
2019-05-29T00:21:22.366Z,98494.77
2019-05-29T00:23:52.622Z,98500.96
2019-05-29T00:26:23.303Z,98500.50
2019-05-29T00:28:53.485Z,98503.17
2019-05-29T00:31:23.746Z,98500.24
2019-05-29T00:33:54.448Z,98500.84
2019-05-29T00:36:24.702Z,98503.62
2019-05-29T00:38:55.313Z,98500.59
2019-05-29T00:41:26.034Z,98502.89
2019-05-29T00:43:56.666Z,98500.73
2019-05-29T00:46:26.865Z,98504.88
2019-05-29T00:48:57.109Z,98502.58
2019-05-29T00:51:27.368Z,98506.86
2019-05-29T00:53:57.650Z,98511.09
2019-05-29T00:56:28.186Z,98518.38
2019-05-29T00:58:58.396Z,98515.22
2019-05-29T01:01:28.945Z,98519.60
2019-05-29T01:03:59.213Z,98517.77
2019-05-29T01:06:29.433Z,98520.93
2019-05-29T01:08:59.703Z,98522.02
2019-05-29T01:11:29.916Z,98528.09
2019-05-29T01:14:00.160Z,98524.80
2019-05-29T01:16:30.420Z,98533.80
2019-05-29T01:19:20.344Z,98532.56
2019-05-29T01:21:50.649Z,98537.05
2019-05-29T01:24:21.263Z,98541.19
2019-05-29T01:26:51.853Z,98540.82
2019-05-29T01:29:23.281Z,98542.75
2019-05-29T01:31:53.673Z,98542.73
2019-05-29T01:34:24.281Z,98544.69
2019-05-29T01:36:54.522Z,98539.01
2019-05-29T01:39:24.770Z,98544.10
2019-05-29T01:41:55.226Z,98545.20
2019-05-29T01:44:25.566Z,98543.45
2019-05-29T01:46:55.872Z,98553.05
2019-05-29T01:49:28.070Z,98553.66
2019-05-29T01:51:59.437Z,98556.47
2019-05-29T01:54:30.733Z,98556.59
2019-05-29T01:57:01.032Z,98559.15
2019-05-29T01:59:31.244Z,98562.78
2019-05-29T02:02:01.727Z,98567.77
2019-05-29T02:04:32.081Z,98570.93
2019-05-29T02:07:02.417Z,98569.95
2019-05-29T02:09:33.033Z,98574.08
2019-05-29T02:12:03.291Z,98574.08
2019-05-29T02:14:33.591Z,98577.27
2019-05-29T02:19:36.666Z,98572.75
2019-05-29T02:22:06.960Z,98591.94
2019-05-29T02:24:37.539Z,98588.31
2019-05-29T02:27:07.785Z,98582.71
2019-05-29T02:29:38.094Z,98586.36
2019-05-29T02:32:08.322Z,98581.12
2019-05-29T02:34:38.605Z,98581.96
2019-05-29T02:37:08.875Z,98590.48
2019-05-29T02:39:40.074Z,98594.83
2019-05-29T02:42:10.327Z,98597.49
2019-05-29T02:44:40.634Z,98590.69
2019-05-29T02:47:10.957Z,98598.59
2019-05-29T02:49:41.578Z,98600.42
2019-05-29T02:52:11.841Z,98604.19
2019-05-29T02:54:42.248Z,98600.09
2019-05-29T02:57:12.778Z,98606.86
2019-05-29T02:59:44.102Z,98607.50
2019-05-29T03:02:15.369Z,98607.85
2019-05-29T03:04:45.693Z,98611.11
2019-05-29T03:07:16.282Z,98615.50
2019-05-29T03:09:47.052Z,98618.88
2019-05-29T03:12:17.303Z,98622.67
2019-05-29T03:14:47.878Z,98625.10
2019-05-29T03:17:18.365Z,98622.43
2019-05-29T03:19:48.674Z,98627.16
2019-05-29T03:22:18.975Z,98629.74
2019-05-29T03:24:49.185Z,98627.53
2019-05-29T03:27:19.629Z,98635.03
2019-05-29T03:29:49.888Z,98637.47
2019-05-29T03:32:20.383Z,98637.22
2019-05-29T03:34:50.756Z,98639.11
2019-05-29T03:37:20.983Z,98646.27
2019-05-29T03:39:51.302Z,98644.34
2019-05-29T03:42:21.885Z,98650.41
2019-05-29T03:44:52.188Z,98652.95
2019-05-29T03:47:22.417Z,98661.46
2019-05-29T03:49:53.066Z,98666.11
2019-05-29T03:52:23.329Z,98669.88
2019-05-29T03:54:53.540Z,98678.88
2019-05-29T03:57:24.450Z,98680.84
2019-05-29T03:59:55.285Z,98682.53
2019-05-29T04:02:26.722Z,98685.58
2019-05-29T04:04:56.960Z,98688.91
2019-05-29T04:07:27.256Z,98690.00
2019-05-29T04:09:57.551Z,98690.48
2019-05-29T04:12:29.598Z,98691.92
2019-05-29T04:15:00.366Z,98701.28
2019-05-29T04:17:33.673Z,98702.51
2019-05-29T04:20:03.901Z,98700.42
2019-05-29T04:22:39.147Z,98701.41
2019-05-29T04:25:10.216Z,98704.32
2019-05-29T04:27:43.446Z,98703.13
2019-05-29T04:30:14.087Z,98700.92
2019-05-29T04:32:44.780Z,98699.09
2019-05-29T04:35:15.063Z,98699.69
2019-05-29T04:37:45.364Z,98702.94
2019-05-29T04:40:15.701Z,98698.22
2019-05-29T04:42:46.312Z,98699.88
2019-05-29T04:45:17.574Z,98699.98
2019-05-29T04:47:47.805Z,98705.19
2019-05-29T04:50:18.003Z,98709.17
2019-05-29T04:52:48.362Z,98714.50
2019-05-29T04:55:18.639Z,98723.86
2019-05-29T04:57:51.005Z,98728.69
2019-05-29T05:00:21.521Z,98726.86
2019-05-29T05:02:51.873Z,98734.10
2019-05-29T05:05:22.486Z,98735.56
2019-05-29T05:07:52.809Z,98731.66
2019-05-29T05:10:48.008Z,98736.75
2019-05-29T05:13:18.320Z,98735.64
2019-05-29T05:15:49.793Z,98735.64
2019-05-29T05:18:20.087Z,98746.82
2019-05-29T05:20:50.393Z,98741.73
2019-05-29T05:23:20.646Z,98741.73
2019-05-29T05:25:50.819Z,98738.84
2019-05-29T05:28:22.112Z,98746.62
2019-05-29T05:30:52.400Z,98750.30
2019-05-29T05:33:22.757Z,98753.31
2019-05-29T05:35:52.978Z,98752.97
2019-05-29T05:38:23.297Z,98758.56
2019-05-29T05:40:53.502Z,98761.94
2019-05-29T05:43:24.667Z,98760.36
2019-05-29T05:45:55.145Z,98767.03
2019-05-29T05:48:25.397Z,98770.29
2019-05-29T05:50:55.645Z,98769.06
2019-05-29T05:53:25.943Z,98775.95
2019-05-29T05:55:56.194Z,98772.52
2019-05-29T05:58:27.403Z,98774.92
2019-05-29T06:00:57.700Z,98782.84
2019-05-29T06:03:28.432Z,98781.32
2019-05-29T06:05:59.035Z,98780.48
2019-05-29T06:08:29.319Z,98778.36
2019-05-29T06:10:59.897Z,98780.16
2019-05-29T06:13:30.521Z,98792.95
2019-05-29T06:16:00.748Z,98784.81
2019-05-29T06:18:32.379Z,98793.77
2019-05-29T06:21:02.801Z,98791.36
2019-05-29T06:23:33.041Z,98795.21
2019-05-29T06:26:03.440Z,98795.91
2019-05-29T06:28:35.032Z,98801.42
2019-05-29T06:31:05.283Z,98806.41
2019-05-29T06:33:37.355Z,98800.64
2019-05-29T06:36:07.720Z,98806.83
2019-05-29T06:38:38.051Z,98815.34
2019-05-29T06:41:08.616Z,98819.43
2019-05-29T06:43:39.894Z,98819.53
2019-05-29T06:46:10.349Z,98827.80
2019-05-29T06:48:52.352Z,98823.56
2019-05-29T06:51:12.650Z,98834.73
2019-05-29T06:53:43.927Z,98835.89
2019-05-29T06:56:14.828Z,98836.95
2019-05-29T06:58:46.305Z,98829.61
2019-05-29T07:01:16.495Z,98836.86
2019-05-29T07:03:48.157Z,98842.23
2019-05-29T07:06:18.675Z,98842.89
2019-05-29T07:08:50.255Z,98846.91
2019-05-29T07:11:21.780Z,98847.62
2019-05-29T07:13:52.352Z,98851.09
2019-05-29T07:16:23.290Z,98852.58
2019-05-29T07:19:24.014Z,98867.22
2019-05-29T07:21:25.890Z,98866.25
2019-05-29T07:23:56.427Z,98869.14
2019-05-29T07:26:26.626Z,98870.20
2019-05-29T07:29:07.350Z,98870.67
2019-05-29T07:31:28.899Z,98878.70
2019-05-29T07:33:59.238Z,98872.25
2019-05-29T07:36:29.447Z,98876.00
2019-05-29T07:39:03.556Z,98878.82
2019-05-29T07:41:33.158Z,98877.34
2019-05-29T07:44:03.390Z,98874.42
2019-05-29T07:46:35.651Z,98876.14
2019-05-29T07:49:05.869Z,98881.56
2019-05-29T07:51:38.168Z,98883.56
2019-05-29T07:54:09.544Z,98886.10
2019-05-29T07:56:40.343Z,98891.83
2019-05-29T07:59:10.666Z,98893.17
2019-05-29T08:01:40.940Z,98893.17
2019-05-29T08:04:11.220Z,98892.97
2019-05-29T08:06:48.312Z,98893.19
2019-05-29T08:09:13.700Z,98896.30
2019-05-29T08:11:43.912Z,98895.70
2019-05-29T08:14:14.160Z,98899.34
2019-05-29T08:16:44.461Z,98899.90
2019-05-29T08:19:15.266Z,98902.28
2019-05-29T08:21:46.480Z,98900.52
2019-05-29T08:24:16.815Z,98907.08
2019-05-29T08:26:48.853Z,98902.67
2019-05-29T08:29:19.369Z,98902.02
2019-05-29T08:31:50.892Z,98907.08
2019-05-29T08:34:21.291Z,98904.61
2019-05-29T08:37:05.834Z,98905.35
2019-05-29T08:39:35.040Z,98906.70
2019-05-29T08:42:21.293Z,98909.40
2019-05-29T08:44:27.718Z,98912.94
2019-05-29T08:47:09.707Z,98902.94
2019-05-29T08:49:30.304Z,98910.09
2019-05-29T08:52:11.311Z,98908.84
2019-05-29T08:54:32.646Z,98913.08
2019-05-29T08:57:02.818Z,98915.95
2019-05-29T08:59:33.478Z,98914.05
2019-05-29T09:02:03.781Z,98909.88
2019-05-29T09:04:34.084Z,98914.16
2019-05-29T09:07:05.298Z,98910.13
2019-05-29T09:09:35.535Z,98915.81
2019-05-29T09:12:05.778Z,98911.89
2019-05-29T09:14:36.835Z,98911.63
2019-05-29T09:17:07.239Z,98911.80
2019-05-29T09:19:37.742Z,98916.33
2019-05-29T09:22:07.936Z,98922.69
2019-05-29T09:24:38.490Z,98913.66
2019-05-29T09:27:08.810Z,98911.31
2019-05-29T09:29:39.483Z,98920.17
2019-05-29T09:32:09.760Z,98921.63
2019-05-29T09:34:40.436Z,98921.13
2019-05-29T09:37:10.721Z,98921.47
2019-05-29T09:39:41.063Z,98925.19
2019-05-29T09:42:11.262Z,98922.59
2019-05-29T09:44:42.149Z,98933.17
2019-05-29T09:47:12.385Z,98922.10
2019-05-29T09:49:42.982Z,98935.06
2019-05-29T09:52:13.227Z,98928.66
2019-05-29T09:54:43.532Z,98927.68
2019-05-29T09:57:15.458Z,98930.54
2019-05-29T09:59:45.861Z,98924.47
2019-05-29T10:02:16.193Z,98931.66
2019-05-29T10:04:46.418Z,98925.95
2019-05-29T10:07:16.783Z,98923.43
2019-05-29T10:09:47.117Z,98930.53
2019-05-29T10:12:17.351Z,98928.35
2019-05-29T10:14:51.189Z,98928.69
2019-05-29T10:17:19.975Z,98926.95
2019-05-29T10:19:50.216Z,98927.58
2019-05-29T10:22:20.494Z,98928.97
2019-05-29T10:24:51.255Z,98928.49
2019-05-29T10:27:21.640Z,98927.11
2019-05-29T10:29:53.195Z,98931.81
2019-05-29T10:32:23.844Z,98937.59
2019-05-29T10:34:54.139Z,98930.50
2019-05-29T10:37:24.774Z,98930.95
2019-05-29T10:39:54.950Z,98928.00
2019-05-29T10:42:25.276Z,98935.58
2019-05-29T10:44:55.986Z,98932.24
2019-05-29T10:47:26.254Z,98925.00
2019-05-29T10:49:56.517Z,98926.47
2019-05-29T10:52:27.212Z,98924.13
2019-05-29T10:54:57.529Z,98920.27
2019-05-29T10:57:27.863Z,98920.63
2019-05-29T10:59:58.084Z,98920.08
2019-05-29T11:02:28.311Z,98926.81
2019-05-29T11:04:59.638Z,98928.12
2019-05-29T11:07:30.028Z,98921.91
2019-05-29T11:10:00.363Z,98914.20
2019-05-29T11:12:30.684Z,98923.36
2019-05-29T11:15:01.046Z,98920.86
2019-05-29T11:17:31.334Z,98915.53
2019-05-29T11:20:01.911Z,98919.02
2019-05-29T11:22:32.181Z,98914.35
2019-05-29T11:25:21.038Z,98911.49
2019-05-29T11:27:34.605Z,98917.36
2019-05-29T11:30:06.152Z,98912.73
2019-05-29T11:32:36.444Z,98908.30
2019-05-29T11:35:06.783Z,98917.24
2019-05-29T11:37:37.001Z,98910.42
2019-05-29T11:40:07.401Z,98908.53
2019-05-29T11:42:37.647Z,98913.33
2019-05-29T11:45:09.178Z,98920.32
2019-05-29T11:47:39.437Z,98912.05
2019-05-29T11:50:19.058Z,98914.61
2019-05-29T11:52:43.849Z,98912.47
2019-05-29T11:55:15.036Z,98923.73
2019-05-29T11:57:45.953Z,98925.67
2019-05-29T12:00:20.104Z,98923.51
2019-05-29T12:02:49.220Z,98924.40
2019-05-29T12:05:19.799Z,98927.02
2019-05-29T12:07:51.494Z,98930.64
2019-05-29T12:10:22.413Z,98930.77
2019-05-29T12:12:53.420Z,98933.03
2019-05-29T12:15:25.035Z,98922.88
2019-05-29T12:18:08.703Z,98929.78
2019-05-29T12:20:28.801Z,98928.22
2019-05-29T12:23:20.355Z,98927.28
2019-05-29T12:25:31.335Z,98923.56
2019-05-29T12:28:03.234Z,98925.49
2019-05-29T12:30:34.159Z,98930.72
2019-05-29T12:33:04.436Z,98924.37
2019-05-29T12:35:34.777Z,98916.63
2019-05-29T12:38:05.159Z,98922.47
2019-05-29T12:40:35.382Z,98917.28
2019-05-29T12:43:05.981Z,98916.04
2019-05-29T12:45:36.189Z,98912.27
2019-05-29T12:48:13.223Z,98913.61
2019-05-29T12:50:38.491Z,98905.76
2019-05-29T12:53:09.120Z,98906.62
2019-05-29T12:55:39.536Z,98915.23
2019-05-29T12:58:09.818Z,98912.47
2019-05-29T13:00:40.077Z,98909.49
2019-05-29T13:03:10.784Z,98909.55
2019-05-29T13:05:41.044Z,98908.71
2019-05-29T13:08:11.342Z,98909.39
2019-05-29T13:10:41.836Z,98915.52
2019-05-29T13:13:12.117Z,98913.66
2019-05-29T13:15:42.723Z,98911.23
2019-05-29T13:18:13.040Z,98902.87
2019-05-29T13:20:43.281Z,98909.35
2019-05-29T13:23:13.631Z,98911.37
2019-05-29T13:25:43.945Z,98915.97
2019-05-29T13:28:14.278Z,98912.97
2019-05-29T13:30:44.544Z,98908.42
2019-05-29T13:33:14.810Z,98922.09
2019-05-29T13:35:45.099Z,98920.42
2019-05-29T13:38:15.442Z,98918.47
2019-05-29T13:40:45.833Z,98919.60
2019-05-29T13:43:16.288Z,98925.91
2019-05-29T13:45:46.625Z,98911.36
2019-05-29T13:48:16.966Z,98919.77
2019-05-29T13:50:48.777Z,98919.27
2019-05-29T13:53:19.351Z,98917.81
2019-05-29T13:55:50.181Z,98914.78
2019-05-29T13:58:20.765Z,98914.95
2019-05-29T14:00:51.588Z,98920.08
2019-05-29T14:03:22.201Z,98920.34
2019-05-29T14:05:52.733Z,98929.27
2019-05-29T14:08:22.938Z,98937.34
2019-05-29T14:10:53.360Z,98935.48
2019-05-29T14:13:23.586Z,98929.09
2019-05-29T14:15:53.886Z,98933.28
2019-05-29T14:18:25.414Z,98929.86
2019-05-29T14:20:55.647Z,98927.92
2019-05-29T14:23:25.921Z,98931.97
2019-05-29T14:25:56.199Z,98924.78
2019-05-29T14:28:26.540Z,98931.99
2019-05-29T14:30:57.193Z,98925.52
2019-05-29T14:33:27.468Z,98929.12
2019-05-29T14:35:57.798Z,98926.23
2019-05-29T14:38:28.411Z,98926.55
2019-05-29T14:40:59.283Z,98929.31
2019-05-29T14:43:29.546Z,98926.97
2019-05-29T14:45:59.838Z,98935.69
2019-05-29T14:48:30.186Z,98933.53
2019-05-29T14:51:03.176Z,98927.08
2019-05-29T14:53:33.388Z,98940.11
2019-05-29T14:56:04.464Z,98935.50
2019-05-29T14:58:34.766Z,98940.02
2019-05-29T15:01:05.056Z,98937.30
2019-05-29T15:03:36.647Z,98941.16
2019-05-29T15:06:07.646Z,98948.06
2019-05-29T15:08:37.935Z,98937.16
2019-05-29T15:11:10.076Z,98937.24
2019-05-29T15:13:40.674Z,98938.83
2019-05-29T15:16:10.953Z,98942.86
2019-05-29T15:18:41.192Z,98944.72
2019-05-29T15:21:11.462Z,98960.38
2019-05-29T15:23:41.753Z,98962.25
2019-05-29T15:26:12.060Z,98968.98
2019-05-29T15:28:43.096Z,98962.81
2019-05-29T15:31:14.638Z,98964.86
2019-05-29T15:33:46.088Z,98963.94
2019-05-29T15:36:16.950Z,98963.94
2019-05-29T15:38:47.234Z,98968.86
2019-05-29T15:41:17.510Z,98971.73
2019-05-29T15:43:49.381Z,98971.06
2019-05-29T15:46:19.802Z,98970.06
2019-05-29T15:48:50.422Z,98973.06
2019-05-29T15:51:21.881Z,98970.09
2019-05-29T15:53:52.172Z,98978.70
2019-05-29T15:56:28.047Z,98970.30
2019-05-29T15:58:54.401Z,98962.41
2019-05-29T16:01:24.644Z,98976.59
2019-05-29T16:03:54.913Z,98978.53
2019-05-29T16:06:25.176Z,98975.44
2019-05-29T16:08:55.900Z,98972.23
2019-05-29T16:11:26.131Z,98979.36
2019-05-29T16:13:56.414Z,98974.57
2019-05-29T16:16:27.041Z,98972.42
2019-05-29T16:19:00.426Z,98973.78
2019-05-29T16:21:29.299Z,98977.29
2019-05-29T16:24:00.794Z,98972.08
2019-05-29T16:26:31.060Z,98977.25
2019-05-29T16:29:01.658Z,98972.81
2019-05-29T16:31:32.202Z,98974.30
2019-05-29T16:34:02.633Z,98977.97
2019-05-29T16:36:32.973Z,98972.86
2019-05-29T16:39:03.374Z,98971.47
2019-05-29T16:41:35.265Z,98981.53
2019-05-29T16:44:05.611Z,98984.75
2019-05-29T16:46:35.944Z,98983.95
2019-05-29T16:49:06.191Z,98987.73
2019-05-29T16:51:36.863Z,98993.67
2019-05-29T16:54:07.120Z,98992.56
2019-05-29T16:56:37.448Z,98998.01
2019-05-29T16:59:08.177Z,98999.41
2019-05-29T17:01:38.784Z,99006.35
2019-05-29T17:04:09.438Z,99011.50
2019-05-29T17:06:40.105Z,99008.56
2019-05-29T17:09:10.742Z,99008.11
2019-05-29T17:11:41.093Z,99013.69
2019-05-29T17:14:11.710Z,99011.99
2019-05-29T17:16:41.970Z,99017.81
2019-05-29T17:19:12.549Z,99023.48
2019-05-29T17:21:43.217Z,99028.95
2019-05-29T17:24:14.630Z,99024.94
2019-05-29T17:26:45.110Z,99025.11
2019-05-29T17:29:16.771Z,99028.34
2019-05-29T17:31:47.212Z,99029.44
2019-05-29T17:34:17.481Z,99029.41
2019-05-29T17:36:48.622Z,99032.11
2019-05-29T17:39:20.326Z,99037.41
2019-05-29T17:41:51.286Z,99045.06
2019-05-29T17:44:21.530Z,99046.63
2019-05-29T17:46:51.888Z,99046.02
2019-05-29T17:49:32.267Z,99043.24
2019-05-29T17:51:54.493Z,99043.48
2019-05-29T17:54:26.130Z,99051.42
2019-05-29T17:56:58.665Z,99056.91
2019-05-29T17:59:30.753Z,99047.39
2019-05-29T18:02:01.159Z,99057.45
2019-05-29T18:04:31.379Z,99054.32
2019-05-29T18:07:01.718Z,99051.45
2019-05-29T18:09:32.587Z,99058.73
2019-05-29T18:12:03.134Z,99060.12
2019-05-29T18:14:33.415Z,99060.36
2019-05-29T18:17:04.866Z,99064.42
2019-05-29T18:19:35.220Z,99070.50
2019-05-29T18:22:05.490Z,99083.26
2019-05-29T18:24:35.897Z,99081.84
2019-05-29T18:27:06.409Z,99090.49
2019-05-29T18:29:36.770Z,99093.09
2019-05-29T18:32:07.005Z,99090.99
2019-05-29T18:34:37.692Z,99094.59
2019-05-29T18:37:07.981Z,99097.15
2019-05-29T18:39:39.630Z,99101.23
2019-05-29T18:42:09.888Z,99099.23
2019-05-29T18:44:40.847Z,99100.70
2019-05-29T18:47:11.115Z,99099.86
2019-05-29T18:49:41.386Z,99106.05
2019-05-29T18:52:11.667Z,99103.55
2019-05-29T18:54:41.937Z,99105.66
2019-05-29T18:57:15.691Z,99110.41
2019-05-29T18:59:44.396Z,99111.36
2019-05-29T19:02:14.771Z,99109.55
2019-05-29T19:04:45.066Z,99113.28
2019-05-29T19:07:15.408Z,99116.80
2019-05-29T19:09:45.767Z,99123.91
2019-05-29T19:12:16.240Z,99128.17
2019-05-29T19:14:46.497Z,99130.03
2019-05-29T19:17:16.717Z,99136.70
2019-05-29T19:19:47.058Z,99134.38
2019-05-29T19:22:17.348Z,99137.63
2019-05-29T19:24:47.701Z,99140.89
2019-05-29T19:27:31.045Z,99144.72
2019-05-29T19:29:50.532Z,99147.05
2019-05-29T19:32:20.739Z,99154.20
2019-05-29T19:34:51.019Z,99164.31
2019-05-29T19:37:23.665Z,99162.26
2019-05-29T19:39:55.665Z,99165.86
2019-05-29T19:42:26.180Z,99181.29
2019-05-29T19:44:56.506Z,99182.95
2019-05-29T19:47:28.592Z,99184.00
2019-05-29T19:49:58.887Z,99198.19
2019-05-29T19:52:29.177Z,99196.62
2019-05-29T19:54:59.443Z,99204.08
2019-05-29T19:57:46.541Z,99207.36
2019-05-29T20:00:03.163Z,99206.80
2019-05-29T20:02:34.696Z,99209.90
2019-05-29T20:05:05.831Z,99219.14
2019-05-29T20:07:37.562Z,99219.02
2019-05-29T20:10:08.133Z,99222.33
2019-05-29T20:12:38.475Z,99228.30
2019-05-29T20:15:09.119Z,99224.15
2019-05-29T20:17:39.488Z,99223.95
2019-05-29T20:20:11.519Z,99226.53
2019-05-29T20:22:41.767Z,99229.72
2019-05-29T20:25:13.788Z,99240.21
2019-05-29T20:27:44.857Z,99247.94
2019-05-29T20:30:18.997Z,99255.55
2019-05-29T20:32:49.296Z,99256.45
2019-05-29T20:35:19.900Z,99262.08
2019-05-29T20:37:50.279Z,99260.49
2019-05-29T20:40:20.753Z,99255.11
2019-05-29T20:42:51.149Z,99255.11
2019-05-29T20:45:21.398Z,99265.66
2019-05-29T20:47:51.598Z,99259.92
2019-05-29T20:50:21.976Z,99262.70
2019-05-29T20:52:52.256Z,99268.27
2019-05-29T20:55:22.912Z,99263.58
2019-05-29T20:57:53.634Z,99275.24
2019-05-29T21:00:23.891Z,99281.98
2019-05-29T21:02:54.130Z,99279.48
2019-05-29T21:05:24.419Z,99279.73
2019-05-29T21:07:54.705Z,99281.32
2019-05-29T21:10:24.899Z,99287.56
2019-05-29T21:12:55.228Z,99280.38
2019-05-29T21:15:25.813Z,99285.14
2019-05-29T21:17:56.085Z,99286.87
2019-05-29T21:20:29.085Z,99286.99
2019-05-29T21:22:58.363Z,99291.04
2019-05-29T21:25:28.569Z,99290.17
2019-05-29T21:27:58.817Z,99287.99
2019-05-29T21:30:29.174Z,99285.55
2019-05-29T21:32:59.460Z,99291.28
2019-05-29T21:35:29.755Z,99293.61
2019-05-29T21:38:00.354Z,99292.27
2019-05-29T21:40:30.601Z,99292.14
2019-05-29T21:43:00.865Z,99292.61
2019-05-29T21:45:31.369Z,99293.95
2019-05-29T21:48:01.995Z,99302.73
2019-05-29T21:50:32.343Z,99298.35
2019-05-29T21:53:02.669Z,99301.88
2019-05-29T21:55:33.411Z,99301.04
2019-05-29T21:58:04.004Z,99304.92
2019-05-29T22:00:48.196Z,99308.34
2019-05-29T22:03:20.432Z,99309.80
2019-05-29T22:05:50.850Z,99311.52
2019-05-29T22:08:21.121Z,99316.75
2019-05-29T22:10:51.581Z,99326.73
2019-05-29T22:13:21.867Z,99324.78
2019-05-29T22:15:52.636Z,99324.29
2019-05-29T22:18:23.095Z,99322.78
2019-05-29T22:20:53.442Z,99331.27
2019-05-29T22:23:23.667Z,99328.58
2019-05-29T22:25:55.299Z,99336.70
2019-05-29T22:28:25.561Z,99340.47
2019-05-29T22:30:55.774Z,99342.29
2019-05-29T22:33:25.965Z,99349.53
2019-05-29T22:35:57.497Z,99352.78
2019-05-29T22:38:27.773Z,99348.60
2019-05-29T22:40:58.261Z,99349.84
2019-05-29T22:43:28.730Z,99353.09
2019-05-29T22:45:59.735Z,99352.50
2019-05-29T22:48:29.988Z,99349.23
2019-05-29T22:51:00.349Z,99353.25
2019-05-29T22:53:31.134Z,99355.92
2019-05-29T22:56:02.038Z,99354.09
2019-05-29T22:58:32.417Z,99348.99
2019-05-29T23:01:03.031Z,99353.44
2019-05-29T23:03:33.290Z,99357.11
2019-05-29T23:06:03.544Z,99361.20
2019-05-29T23:08:34.702Z,99355.92
2019-05-29T23:11:04.999Z,99354.66
2019-05-29T23:13:35.584Z,99356.13
2019-05-29T23:16:05.814Z,99355.61
2019-05-29T23:18:36.017Z,99354.45
2019-05-29T23:21:06.361Z,99360.11
2019-05-29T23:23:36.568Z,99357.88
2019-05-29T23:26:07.179Z,99355.25
2019-05-29T23:28:37.445Z,99359.56
2019-05-29T23:31:07.928Z,99354.97
2019-05-29T23:33:38.458Z,99351.83
2019-05-29T23:36:08.745Z,99346.11
2019-05-29T23:38:38.974Z,99352.87
2019-05-29T23:41:09.204Z,99352.55
2019-05-29T23:43:39.548Z,99346.23
2019-05-29T23:46:09.741Z,99348.78
2019-05-29T23:48:39.963Z,99345.84
2019-05-29T23:51:10.532Z,99348.68
2019-05-29T23:53:40.811Z,99348.40
2019-05-29T23:56:11.050Z,99348.34
2019-05-29T23:58:41.366Z,99352.98
